Latest Weather Observations for Tibooburra Airport

IDN60801

Issued at 10:33 pm EST Saturday 23 July 2016 (issued every 30 minutes, with the page automatically refreshed every 10 minutes)

About weather observations | Map of weather stations | Latest weather observations for NSW | Other Formats
Station Details ID: 046126 Name: TIBOOBURRA AIRPORT Lat: -29.44 Lon: 142.06 Height: 176.4 m
Data from the previous 72 hours. | See also: Recent months at Tibooburra Airport
Date/Time
EST
Temp
°C
App
Temp
°C
Dew
Point
°C
Rel
Hum
%
Delta-T
°C
Wind Press
QNH
hPa
Press
MSL
hPa
Rain since
9am
mm
Dir  Spd
km/h
Gust
km/h
Spd
kts
Gust
kts
23/10:30pm 12.7 - - - - WSW 9 13 5 7 1017.7 1017.7 0.0
23/10:00pm 12.7 - - - - WNW 9 11 5 6 1017.3 1017.3 0.0
23/09:30pm 12.8 - - - - WNW 9 9 5 5 1017.6 1017.6 0.0
23/09:00pm 12.8 - - - - W 11 13 6 7 1018.0 1018.0 0.0
23/08:30pm 13.5 - - - - W 13 17 7 9 1017.9 1017.9 0.0
23/08:00pm 13.8 - - - - W 13 15 7 8 1017.7 1017.7 0.0
23/07:30pm 14.0 - - - - W 15 17 8 9 1017.4 1017.4 0.0
23/07:00pm 14.0 - - - - W 11 15 6 8 1016.4 1016.4 0.0
23/06:30pm 14.0 - - - - W 9 13 5 7 1016.5 1016.5 0.0
23/06:00pm 14.9 - - - - WSW 15 19 8 10 1016.6 1016.6 0.0
23/05:30pm 15.7 - - - - WSW 15 19 8 10 1016.5 1016.5 0.0
23/05:00pm 16.2 - - - - SW 15 20 8 11 1016.0 1016.1 0.0
23/04:30pm 16.8 - - - - WSW 17 20 9 11 1016.4 1016.4 0.0
23/04:00pm 16.8 - - - - WSW 15 24 8 13 1016.6 1016.6 0.0
23/03:30pm 16.6 - - - - W 17 24 9 13 1016.5 1016.5 0.0
23/03:00pm 16.5 - - - - SW 13 20 7 11 1016.5 1016.5 0.0
23/02:30pm 16.5 - - - - WSW 15 28 8 15 1016.4 1016.4 0.0
23/02:00pm 16.0 - - - - SW 19 28 10 15 1016.8 1016.8 0.0
23/01:30pm 16.5 - - - - SW 19 26 10 14 1016.6 1016.6 0.0
23/01:00pm 15.3 - - - - SW 20 32 11 17 1016.8 1016.8 0.0
23/12:30pm 15.8 - - - - SW 22 32 12 17 1017.7 1017.7 0.0
23/12:00pm 15.2 - - - - SW 19 28 10 15 1017.6 1017.6 0.0
23/11:30am 15.0 - - - - SW 20 30 11 16 1017.9 1017.9 0.0
23/11:00am 14.0 - - - - SW 24 32 13 17 1018.1 1018.1 0.0
23/10:30am 14.0 - - - - SW 22 33 12 18 1018.3 1018.3 0.0
23/10:00am 13.2 - - - - SW 26 35 14 19 1018.0 1018.0 0.0
23/09:30am 12.8 - - - - SW 24 35 13 19 1017.7 1017.7 0.0
23/09:00am 11.8 - - - - WSW 19 26 10 14 1017.3 1017.3 0.0
23/08:30am 10.2 - - - - WSW 15 19 8 10 1016.9 1016.9 0.0
23/08:00am 9.8 - - - - WSW 15 19 8 10 1016.6 1016.6 0.0
23/07:30am 9.3 - - - - SW 15 20 8 11 1016.4 1016.4 0.0
23/07:00am 9.9 - - - - SW 19 22 10 12 1015.8 1015.9 0.0
23/06:30am 10.3 - - - - SW 19 24 10 13 1015.5 1015.6 0.0
23/06:00am 10.7 - - - - SSW 17 22 9 12 1014.9 1015.0 0.0
23/05:30am 11.4 - - - - SW 30 35 16 19 1014.6 1014.7 0.0
23/05:00am 11.8 - - - - SW 26 33 14 18 1014.3 1014.4 0.0
23/04:30am 12.4 - - - - SW 26 33 14 18 1014.1 1014.2 0.0
23/04:00am 12.8 - - - - SW 24 35 13 19 1014.0 1014.1 0.0
23/03:30am 13.7 - - - - WSW 32 44 17 24 1013.8 1013.8 0.0
23/03:00am 14.3 - - - - SW 30 43 16 23 1013.6 1013.6 0.0
23/02:30am 15.1 - - - - WSW 32 43 17 23 1013.1 1013.1 0.0
23/02:00am 15.7 - - - - WSW 30 41 16 22 1012.9 1012.9 0.0
23/01:30am 16.1 - - - - WSW 24 32 13 17 1012.6 1012.6 0.0
23/01:00am 16.6 - - - - WSW 28 35 15 19 1012.6 1012.6 0.0
23/12:30am 17.2 - - - - W 33 44 18 24 1012.4 1012.4 0.0
23/12:00am 17.5 - - - - WSW 28 39 15 21 1012.4 1012.4 0.0
 
Date/Time
EST
Temp
°C
App
Temp
°C
Dew
Point
°C
Rel
Hum
%
Delta-T
°C
Wind Press
QNH
hPa
Press
MSL
hPa
Rain since
9am
mm
Dir  Spd
km/h
Gust
km/h
Spd
kts
Gust
kts
22/11:30pm 18.1 - - - - W 32 41 17 22 1012.0 1012.0 0.0
22/11:00pm 18.6 - - - - W 32 44 17 24 1011.8 1011.8 0.0
22/10:30pm 19.2 - - - - W 33 44 18 24 1011.5 1011.5 0.0
22/10:00pm 20.1 - - - - W 43 54 23 29 1011.3 1011.3 0.0
22/09:30pm 21.1 - - - - W 35 43 19 23 1010.8 1010.8 0.0
22/09:00pm 21.5 15.4 8.1 42 7.1 W 30 39 16 21 1010.5 1010.5 0.0
22/08:30pm 22.2 15.6 8.7 42 7.2 WNW 33 43 18 23 1010.0 1010.1 0.0
22/08:00pm 22.8 16.5 8.9 41 7.5 WNW 32 41 17 22 1009.5 1009.6 0.0
22/07:30pm 23.3 17.4 9.0 40 7.7 WNW 30 39 16 21 1009.1 1009.2 0.0
22/07:00pm 23.7 18.1 8.9 39 8.0 WNW 28 37 15 20 1008.6 1008.6 0.0
22/06:30pm 24.3 18.3 8.7 37 8.4 WNW 30 39 16 21 1008.2 1008.2 0.0
22/06:00pm 25.0 17.7 8.9 36 8.8 W 37 46 20 25 1008.4 1008.4 0.0
22/05:30pm 26.8 18.3 8.7 32 9.9 WNW 43 59 23 32 1007.9 1007.9 0.0
22/05:00pm 27.5 19.0 8.4 30 10.5 WNW 43 61 23 33 1007.7 1007.7 0.0
22/04:33pm 28.0 18.5 8.3 29 10.8 WNW 48 67 26 36 1007.7 1007.7 0.0
22/04:30pm 28.0 18.1 8.3 29 10.8 WNW 50 67 27 36 1007.7 1007.7 0.0
22/04:29pm 28.0 18.5 8.3 29 10.8 WNW 48 67 26 36 1007.7 1007.7 0.0
22/04:00pm 28.4 19.9 8.7 29 10.9 WNW 43 54 23 29 1007.5 1007.5 0.0
22/03:45pm 28.7 20.1 8.9 29 11.0 WNW 44 63 24 34 1007.6 1007.6 0.0
22/03:30pm 28.5 19.3 8.2 28 11.1 WNW 46 57 25 31 1007.7 1007.7 0.0
22/03:02pm 28.4 19.8 8.7 29 10.9 WNW 44 63 24 34 1007.7 1007.7 0.0
22/03:00pm 28.6 19.6 8.8 29 11.0 WNW 46 63 25 34 1007.7 1007.7 0.0
22/02:45pm 28.8 20.4 9.0 29 11.0 WNW 43 61 23 33 1007.8 1007.8 0.0
22/02:30pm 28.4 20.2 9.6 31 10.6 NW 43 57 23 31 1008.0 1008.0 0.0
22/02:00pm 28.6 20.4 9.8 31 10.6 NW 43 59 23 32 1008.2 1008.2 0.0
22/01:41pm 28.1 19.6 9.4 31 10.4 NW 44 63 24 34 1008.2 1008.2 0.0
22/01:30pm 27.8 18.5 9.1 31 10.4 WNW 48 63 26 34 1008.7 1008.7 0.0
22/01:20pm 28.1 20.1 10.3 33 10.1 NW 43 61 23 33 1008.9 1008.9 0.0
22/01:00pm 27.7 19.6 10.0 33 10.0 NW 43 54 23 29 1009.5 1009.6 0.0
22/12:36pm 27.4 20.4 11.4 37 9.2 NW 39 57 21 31 1009.8 1009.9 0.0
22/12:30pm 27.1 19.2 11.6 38 8.9 NW 44 57 24 31 1009.9 1010.0 0.0
22/12:04pm 26.5 18.6 11.4 39 8.7 NW 44 63 24 34 1010.6 1010.6 0.0
22/12:00pm 26.3 18.1 11.6 40 8.5 NW 46 63 25 34 1010.6 1010.6 0.0
22/11:30am 26.2 19.0 11.9 41 8.3 NW 41 56 22 30 1010.9 1010.9 0.0
22/11:00am 25.3 18.8 12.9 46 7.3 NW 39 52 21 28 1011.5 1011.5 0.0
22/10:30am 24.7 19.5 13.3 49 6.7 NW 33 43 18 23 1012.0 1012.0 0.0
22/10:00am 23.4 - - - - NW 26 35 14 19 1012.2 1012.2 0.0
22/09:30am 21.3 - - - - NW 28 39 15 21 1012.2 1012.2 0.0
22/09:00am 19.9 - - - - NNW 28 39 15 21 1012.2 1012.2 0.0
22/08:30am 18.6 - - - - NNW 24 33 13 18 1012.3 1012.3 0.0
22/08:00am 17.7 - - - - NNW 22 28 12 15 1012.2 1012.2 0.0
22/07:30am 17.2 - - - - NNW 22 28 12 15 1012.1 1012.1 0.0
22/07:00am 17.1 - - - - NNW 20 26 11 14 1011.9 1011.9 0.0
22/06:30am 17.2 - - - - NNW 20 28 11 15 1012.2 1012.2 0.0
22/06:00am 17.2 - - - - NNW 22 28 12 15 1012.1 1012.1 0.0
22/05:30am 17.1 - - - - NNW 20 24 11 13 1012.1 1012.1 0.0
22/05:00am 17.2 - - - - NNW 20 26 11 14 1012.1 1012.1 0.0
22/04:30am 17.2 - - - - NNW 19 24 10 13 1012.4 1012.4 0.0
22/04:00am 17.4 - - - - NNW 17 20 9 11 1012.6 1012.6 0.0
22/03:30am 17.7 - - - - NNW 19 26 10 14 1013.0 1013.0 0.0
22/03:00am 18.3 - - - - NNW 22 26 12 14 1013.3 1013.3 0.0
22/02:30am 18.6 - - - - NNW 19 22 10 12 1013.6 1013.6 0.0
22/02:00am 18.9 - - - - NNW 17 20 9 11 1014.0 1014.1 0.0
22/01:30am 19.0 - - - - NNW 17 20 9 11 1014.0 1014.1 0.0
22/01:00am 19.3 - - - - NNW 17 20 9 11 1014.0 1014.1 0.0
22/12:30am 19.0 - - - - NNW 15 19 8 10 1014.2 1014.3 0.0
22/12:00am 19.1 - - - - N 17 20 9 11 1014.2 1014.3 0.0
 
Date/Time
EST
Temp
°C
App
Temp
°C
Dew
Point
°C
Rel
Hum
%
Delta-T
°C
Wind Press
QNH
hPa
Press
MSL
hPa
Rain since
9am
mm
Dir  Spd
km/h
Gust
km/h
Spd
kts
Gust
kts
21/11:30pm 19.5 - - - - NNW 19 22 10 12 1014.5 1014.6 0.0
21/11:00pm 19.7 - - - - NNW 17 20 9 11 1014.7 1014.8 0.0
21/10:30pm 20.0 18.6 15.6 76 2.6 NNW 17 20 9 11 1014.8 1014.9 0.0
21/10:00pm 20.3 18.9 15.5 74 2.9 NNW 17 20 9 11 1014.8 1014.9 0.0
21/09:30pm 20.7 19.2 15.3 71 3.2 NNW 17 20 9 11 1015.0 1015.1 0.0
21/09:00pm 20.9 19.1 14.5 67 3.8 N 17 20 9 11 1015.0 1015.1 0.0
21/08:30pm 21.5 20.1 14.4 64 4.2 N 15 17 8 9 1014.8 1014.9 0.0
21/08:00pm 21.8 20.7 14.4 63 4.4 NNW 13 15 7 8 1014.8 1014.9 0.0
21/07:30pm 22.2 21.2 14.6 62 4.5 NNW 13 15 7 8 1014.6 1014.7 0.0
21/07:00pm 22.4 21.7 14.3 60 4.8 NNW 11 13 6 7 1014.3 1014.4 0.0
21/06:30pm 23.4 22.1 13.8 54 5.6 NNW 13 17 7 9 1014.1 1014.2 0.0
21/06:00pm 24.3 22.8 14.1 53 6.1 NW 15 19 8 10 1013.9 1014.0 0.0
21/05:30pm 25.3 23.4 14.1 50 6.7 NNW 17 20 9 11 1013.7 1013.7 0.0
21/05:00pm 25.9 24.0 14.1 48 7.1 NW 17 22 9 12 1013.6 1013.6 0.0
21/04:30pm 26.1 24.4 14.6 49 6.9 NW 17 28 9 15 1013.7 1013.7 0.0
21/04:00pm 25.7 23.8 15.1 52 6.4 NNW 19 24 10 13 1014.0 1014.1 0.0
21/03:30pm 26.0 24.2 16.0 54 6.2 NW 20 30 11 16 1014.3 1014.4 0.0
21/03:00pm 24.9 25.2 16.1 58 5.4 NNW 9 13 5 7 1014.5 1014.6 0.0
21/02:30pm 25.4 24.7 16.5 58 5.5 NW 15 17 8 9 1014.9 1015.0 0.0
21/02:00pm 25.3 25.1 16.7 59 5.3 NW 13 19 7 10 1015.2 1015.3 0.0
21/01:30pm 25.7 24.7 16.5 56 5.7 NNW 17 22 9 12 1015.7 1015.8 0.0
21/01:00pm 24.4 23.4 16.6 61 4.8 WNW 17 20 9 11 1016.3 1016.3 0.0
21/12:30pm 24.4 24.7 17.1 63 4.5 NW 11 20 6 11 1016.7 1016.7 0.0
21/12:00pm 24.7 24.2 16.9 62 4.8 NNW 15 20 8 11 1017.3 1017.3 0.0
21/11:30am 24.2 24.2 17.2 65 4.4 NNW 13 20 7 11 1017.7 1017.7 0.0
21/11:00am 23.5 24.5 18.6 74 3.1 N 11 17 6 9 1017.9 1017.9 0.0
21/10:30am 22.0 - - - - N 13 17 7 9 1018.0 1018.0 0.0
21/10:00am 20.6 - - - - N 9 13 5 7 1018.1 1018.1 0.0
21/09:30am 19.6 - - - - NE 2 7 1 4 1018.2 1018.2 0.0
21/09:00am 17.7 - - - - NNW 7 7 4 4 1018.0 1018.0 0.0
21/08:30am 17.6 - - - - NNW 2 7 1 4 1017.8 1017.8 0.0
21/08:00am 16.8 16.9 16.6 99 0.1 N 11 13 6 7 1017.7 1017.7 0.0
21/07:30am 16.9 18.0 16.7 99 0.1 N 6 9 3 5 1017.5 1017.5 0.0
21/07:00am 16.7 18.9 16.5 99 0.1 CALM 0 0 0 0 1017.4 1017.4 0.0
21/06:30am 16.8 17.3 16.6 99 0.1 N 9 13 5 7 1017.1 1017.1 0.0
21/06:00am 17.1 16.9 16.6 97 0.3 NNE 13 15 7 8 1016.9 1016.9 0.0
21/05:30am 17.5 18.5 16.9 96 0.4 NE 7 9 4 5 1016.9 1016.9 0.0
21/05:00am 17.1 18.6 16.6 97 0.3 NW 4 7 2 4 1016.6 1016.6 0.0
21/04:30am 16.6 18.6 16.0 96 0.4 CALM 0 0 0 0 1016.8 1016.8 0.0
21/04:00am 16.6 17.7 15.5 93 0.6 SSW 4 7 2 4 1016.9 1016.9 0.0
21/03:30am 17.1 18.0 16.1 94 0.6 SE 6 7 3 4 1017.3 1017.3 0.0
21/03:00am 17.3 18.1 16.3 94 0.6 ESE 7 9 4 5 1017.5 1017.5 0.0
21/02:30am 17.3 18.3 16.3 94 0.6 SSE 6 7 3 4 1017.7 1017.7 0.0
21/02:00am 17.4 19.6 16.4 94 0.6 CALM 0 7 0 4 1018.1 1018.1 0.0
21/01:30am 17.4 19.6 16.4 94 0.6 CALM 0 0 0 0 1018.3 1018.3 0.0
21/01:00am 17.8 18.3 16.5 92 0.8 NE 9 9 5 5 1018.3 1018.3 0.0
21/12:30am 18.2 18.1 17.0 93 0.7 NNE 13 15 7 8 1018.3 1018.3 0.0
21/12:00am 18.1 18.4 17.1 94 0.6 NE 11 13 6 7 1018.3 1018.3 0.0
 
Date/Time
EST
Temp
°C
App
Temp
°C
Dew
Point
°C
Rel
Hum
%
Delta-T
°C
Wind Press
QNH
hPa
Press
MSL
hPa
Rain since
9am
mm
Dir  Spd
km/h
Gust
km/h
Spd
kts
Gust
kts
20/11:30pm 18.0 18.0 17.2 95 0.5 ENE 13 15 7 8 1018.3 1018.3 0.0
20/11:00pm 18.0 18.0 17.2 95 0.5 ENE 13 13 7 7 1018.5 1018.5 0.0

Other Formats:

Comma delimited format used in spreadsheet applications
http://www.bom.gov.au/fwo/IDN60801/IDN60801.95485.axf

JavaScript Object Notation format (JSON) in row-major order
http://www.bom.gov.au/fwo/IDN60801/IDN60801.95485.json